Time;durP1;ratioP1;P1;durP2;ratioP2;P2;SDS_P1;SDS_P2;PMS_P1;PMS_P2;Temp;Humidity;BMP_temperature;BMP_pressure;BME280_temperature;BME280_humidity;BME280_pressure;Samples;Min_cycle;Max_cycle;Signal;HPM_P1;HPM_P2
2022/05/19 00:00:15;;;;;;;11.52;2.60;;;;;;;;;;5032874;28;20476;-80
2022/05/19 00:03:00;;;;;;;6.63;2.28;;;;;;;;;;5033938;28;20049;-82
2022/05/19 00:05:45;;;;;;;4.60;2.40;;;;;;;;;;5040135;28;20049;-78
2022/05/19 00:08:33;;;;;;;5.20;2.17;;;;;;;;;;5034592;28;20050;-82
2022/05/19 00:11:29;;;;;;;3.55;2.10;;;;;;;;;;5033819;28;20046;-80
2022/05/19 00:14:16;;;;;;;4.72;2.15;;;;;;;;;;5033431;28;20045;-81
2022/05/19 00:17:04;;;;;;;3.88;1.88;;;;;;;;;;5033551;28;20050;-81
2022/05/19 00:19:50;;;;;;;5.63;1.67;;;;;;;;;;5033146;28;20506;-82
2022/05/19 00:22:37;;;;;;;6.10;2.00;;;;;;;;;;5040176;28;20045;-80
2022/05/19 00:25:22;;;;;;;2.70;1.40;;;;;;;;;;5018768;28;20041;-82
2022/05/19 00:28:09;;;;;;;3.42;1.40;;;;;;;;;;5033401;28;20045;-80
2022/05/19 00:30:54;;;;;;;5.05;1.52;;;;;;;;;;5033405;28;20045;-82
2022/05/19 00:33:39;;;;;;;3.97;1.63;;;;;;;;;;5040216;28;20045;-81
2022/05/19 00:36:25;;;;;;;2.80;1.45;;;;;;;;;;5033640;28;20400;-81
2022/05/19 00:39:11;;;;;;;3.63;1.40;;;;;;;;;;5040511;28;20049;-81
2022/05/19 00:45:01;;;;;;;4.80;1.80;;;;;;;;;;5033479;28;20049;-83
2022/05/19 00:48:01;;;;;;;8.65;1.60;;;;;;;;;;5032922;28;20042;-83
2022/05/19 00:50:57;;;;;;;7.20;1.88;;;;;;;;;;5040023;28;20046;-81
2022/05/19 00:53:45;;;;;;;4.13;1.77;;;;;;;;;;5033718;28;20485;-83
2022/05/19 00:56:37;;;;;;;6.13;1.75;;;;;;;;;;5033065;28;20053;-80
2022/05/19 00:59:27;;;;;;;3.75;1.88;;;;;;;;;;5040154;28;20046;-80
2022/05/19 01:02:17;;;;;;;4.03;1.52;;;;;;;;;;5018133;28;20484;-81
2022/05/19 01:05:06;;;;;;;2.15;1.48;;;;;;;;;;5039870;28;20049;-81
2022/05/19 01:08:00;;;;;;;3.70;1.85;;;;;;;;;;5036044;28;20057;-82
2022/05/19 01:10:48;;;;;;;3.00;1.58;;;;;;;;;;5033144;28;20476;-81
2022/05/19 01:13:35;;;;;;;3.72;1.58;;;;;;;;;;5036765;28;20042;-80
2022/05/19 01:16:20;;;;;;;2.50;1.30;;;;;;;;;;5036795;28;20053;-82
2022/05/19 01:19:30;;;;;;;3.47;1.60;;;;;;;;;;5036691;28;20038;-80
2022/05/19 01:22:21;;;;;;;3.28;1.30;;;;;;;;;;5036902;28;20469;-83
2022/05/19 01:25:22;;;;;;;3.97;1.45;;;;;;;;;;5037248;28;20053;-81
2022/05/19 01:28:09;;;;;;;3.65;1.83;;;;;;;;;;5028689;28;20057;-81
2022/05/19 01:30:53;;;;;;;2.00;1.30;;;;;;;;;;5036460;28;20420;-80
2022/05/19 01:33:39;;;;;;;3.17;1.50;;;;;;;;;;5036429;28;20428;-82
2022/05/19 01:36:25;;;;;;;2.55;1.42;;;;;;;;;;5042733;28;20053;-81
2022/05/19 01:39:14;;;;;;;2.00;1.50;;;;;;;;;;5036755;28;20037;-82
2022/05/19 01:42:39;;;;;;;4.75;2.28;;;;;;;;;;5043417;28;20393;-80
2022/05/19 01:45:50;;;;;;;4.47;2.05;;;;;;;;;;5042704;28;20042;-81
2022/05/19 01:48:41;;;;;;;2.28;1.60;;;;;;;;;;5043351;28;20041;-81
2022/05/19 01:51:26;;;;;;;3.17;1.48;;;;;;;;;;5035935;28;20041;-80
2022/05/19 01:54:57;;;;;;;2.55;1.63;;;;;;;;;;5036347;28;20485;-83
2022/05/19 01:57:54;;;;;;;5.13;1.48;;;;;;;;;;5009268;28;20049;-82
2022/05/19 02:00:43;;;;;;;1.35;1.23;;;;;;;;;;5036037;28;20046;-82
2022/05/19 02:03:37;;;;;;;1.30;1.20;;;;;;;;;;5036630;28;20045;-81
2022/05/19 02:06:40;;;;;;;1.77;1.30;;;;;;;;;;5044096;28;20057;-82
2022/05/19 02:09:34;;;;;;;3.17;1.25;;;;;;;;;;5040254;28;20493;-82
2022/05/19 02:12:21;;;;;;;1.40;1.30;;;;;;;;;;5041507;28;20045;-79
2022/05/19 02:15:13;;;;;;;3.45;1.35;;;;;;;;;;5038488;28;20049;-82
2022/05/19 02:17:59;;;;;;;1.30;1.20;;;;;;;;;;5036334;28;20041;-82
2022/05/19 02:20:46;;;;;;;3.15;1.35;;;;;;;;;;5035672;28;20045;-81
2022/05/19 02:23:33;;;;;;;2.75;1.40;;;;;;;;;;5035577;28;20041;-81
2022/05/19 02:26:18;;;;;;;2.15;1.30;;;;;;;;;;5041837;28;20049;-80
2022/05/19 02:29:09;;;;;;;1.05;1.00;;;;;;;;;;5042777;28;20053;-82
2022/05/19 02:31:54;;;;;;;2.78;1.40;;;;;;;;;;5042203;28;20069;-82
2022/05/19 02:34:40;;;;;;;1.45;1.35;;;;;;;;;;5035300;28;20049;-84
2022/05/19 02:37:26;;;;;;;1.52;1.33;;;;;;;;;;5035443;28;20053;-82
2022/05/19 02:40:15;;;;;;;1.80;1.20;;;;;;;;;;5035062;28;20034;-82
2022/05/19 02:43:01;;;;;;;6.55;1.80;;;;;;;;;;5035602;28;20057;-80
2022/05/19 02:45:46;;;;;;;2.28;1.63;;;;;;;;;;5042045;28;20496;-82
2022/05/19 02:48:33;;;;;;;3.75;1.38;;;;;;;;;;5034715;28;20049;-81
2022/05/19 02:51:18;;;;;;;2.95;1.50;;;;;;;;;;5035459;28;20053;-83
2022/05/19 02:54:03;;;;;;;5.40;1.40;;;;;;;;;;5034784;28;20046;-83
2022/05/19 02:56:49;;;;;;;1.70;1.40;;;;;;;;;;5041629;28;20045;-83
2022/05/19 02:59:34;;;;;;;2.60;1.50;;;;;;;;;;5026849;28;20053;-80
2022/05/19 03:02:20;;;;;;;5.43;1.38;;;;;;;;;;5034678;28;20049;-78
2022/05/19 03:05:07;;;;;;;2.53;1.58;;;;;;;;;;5041176;28;20045;-80
2022/05/19 03:07:52;;;;;;;2.35;1.50;;;;;;;;;;5022303;28;20500;-83
2022/05/19 03:10:41;;;;;;;2.13;1.48;;;;;;;;;;5034719;28;20037;-80
2022/05/19 03:13:26;;;;;;;2.03;1.35;;;;;;;;;;5034678;28;20049;-80
2022/05/19 03:16:12;;;;;;;5.85;1.52;;;;;;;;;;5041029;28;20049;-81
2022/05/19 03:18:58;;;;;;;2.83;1.35;;;;;;;;;;5041169;28;20054;-79
2022/05/19 03:21:43;;;;;;;5.00;1.40;;;;;;;;;;5041168;28;20049;-80
2022/05/19 03:24:29;;;;;;;3.30;1.30;;;;;;;;;;5041179;28;20049;-80
2022/05/19 03:27:14;;;;;;;2.97;1.55;;;;;;;;;;5034423;28;20067;-81
2022/05/19 03:30:00;;;;;;;3.88;1.38;;;;;;;;;;5034265;28;20401;-82
2022/05/19 03:32:45;;;;;;;2.97;1.60;;;;;;;;;;5031241;28;20046;-79
2022/05/19 03:35:31;;;;;;;2.85;1.63;;;;;;;;;;5033143;28;20042;-81
2022/05/19 03:38:16;;;;;;;2.72;1.65;;;;;;;;;;5034013;28;20057;-80
2022/05/19 03:41:03;;;;;;;2.85;1.50;;;;;;;;;;5040705;28;20053;-81
2022/05/19 03:43:49;;;;;;;3.17;1.50;;;;;;;;;;5033903;28;20045;-81
2022/05/19 03:46:34;;;;;;;8.77;2.00;;;;;;;;;;5037912;28;20037;-81
2022/05/19 03:49:20;;;;;;;7.75;3.53;;;;;;;;;;5024194;28;20404;-81
2022/05/19 03:52:06;;;;;;;8.02;4.97;;;;;;;;;;5036299;28;20046;-82
2022/05/19 03:54:51;;;;;;;7.05;4.28;;;;;;;;;;5034313;28;20053;-83
2022/05/19 03:57:36;;;;;;;4.90;2.97;;;;;;;;;;5040381;28;20049;-81
2022/05/19 04:00:22;;;;;;;5.47;2.85;;;;;;;;;;5040826;28;20057;-83
2022/05/19 04:03:08;;;;;;;7.75;2.22;;;;;;;;;;5033983;28;20057;-83
2022/05/19 04:05:53;;;;;;;4.90;1.92;;;;;;;;;;5033665;28;20041;-80
2022/05/19 04:08:39;;;;;;;4.95;1.95;;;;;;;;;;5033980;28;20491;-80
2022/05/19 04:11:26;;;;;;;4.90;1.90;;;;;;;;;;5033591;28;20041;-84
2022/05/19 04:14:12;;;;;;;5.60;1.85;;;;;;;;;;5033499;28;20045;-82
2022/05/19 04:16:57;;;;;;;6.60;1.83;;;;;;;;;;5019023;28;20049;-84
2022/05/19 04:19:42;;;;;;;7.03;1.90;;;;;;;;;;5033171;28;20045;-84
2022/05/19 04:22:28;;;;;;;3.15;1.67;;;;;;;;;;5033773;28;20396;-82
2022/05/19 04:25:13;;;;;;;2.65;1.77;;;;;;;;;;5032950;28;20049;-82
2022/05/19 04:27:59;;;;;;;3.97;1.98;;;;;;;;;;5024801;28;20049;-82
2022/05/19 04:30:45;;;;;;;3.22;2.00;;;;;;;;;;5018765;28;20053;-82
2022/05/19 04:33:30;;;;;;;4.50;1.90;;;;;;;;;;5020464;28;20046;-82
2022/05/19 04:36:16;;;;;;;3.22;1.58;;;;;;;;;;5029418;28;20042;-81
2022/05/19 04:39:02;;;;;;;6.78;2.20;;;;;;;;;;5029914;28;20042;-82
2022/05/19 04:41:48;;;;;;;6.35;2.03;;;;;;;;;;5031945;28;20037;-82
2022/05/19 04:44:34;;;;;;;6.22;2.20;;;;;;;;;;5039525;28;20476;-84
2022/05/19 04:47:19;;;;;;;5.38;2.00;;;;;;;;;;5029465;28;20038;-81
2022/05/19 04:50:07;;;;;;;7.03;1.90;;;;;;;;;;5041036;28;20041;-80
2022/05/19 04:52:52;;;;;;;9.27;1.90;;;;;;;;;;5029793;28;20046;-81
2022/05/19 04:55:39;;;;;;;3.20;2.30;;;;;;;;;;5042908;28;20050;-81
2022/05/19 04:58:24;;;;;;;5.40;2.08;;;;;;;;;;5024916;28;20042;-81
2022/05/19 05:01:09;;;;;;;6.70;2.50;;;;;;;;;;5023615;28;20053;-82
2022/05/19 05:03:55;;;;;;;6.13;2.13;;;;;;;;;;5017676;28;20381;-83
2022/05/19 05:06:41;;;;;;;14.65;2.33;;;;;;;;;;5016528;28;20046;-83
2022/05/19 05:09:26;;;;;;;9.50;2.20;;;;;;;;;;5017328;28;20484;-84
2022/05/19 05:12:12;;;;;;;9.77;1.80;;;;;;;;;;5016997;28;20042;-86
2022/05/19 05:14:57;;;;;;;5.10;1.55;;;;;;;;;;5015301;28;20038;-86
2022/05/19 05:17:42;;;;;;;11.32;2.20;;;;;;;;;;5023671;28;20061;-85
2022/05/19 05:20:28;;;;;;;4.93;2.10;;;;;;;;;;5016841;28;20045;-85
2022/05/19 05:23:14;;;;;;;5.53;1.92;;;;;;;;;;5017116;28;20050;-84
2022/05/19 05:26:01;;;;;;;8.43;2.42;;;;;;;;;;5023524;28;20049;-84
2022/05/19 05:28:46;;;;;;;11.88;2.30;;;;;;;;;;5016696;28;20041;-83
2022/05/19 05:31:31;;;;;;;4.75;1.88;;;;;;;;;;5016464;28;20046;-82
2022/05/19 05:34:16;;;;;;;7.15;2.00;;;;;;;;;;5016316;28;20042;-84
2022/05/19 05:37:04;;;;;;;5.65;2.10;;;;;;;;;;5017018;28;20046;-82
2022/05/19 05:39:49;;;;;;;6.40;2.30;;;;;;;;;;5016862;28;20425;-84
2022/05/19 05:42:35;;;;;;;4.22;1.80;;;;;;;;;;5023028;28;20049;-86
2022/05/19 05:45:20;;;;;;;8.77;1.77;;;;;;;;;;5001774;28;20042;-84
2022/05/19 05:48:06;;;;;;;2.80;1.80;;;;;;;;;;5016417;28;20042;-83
2022/05/19 05:50:51;;;;;;;4.95;1.52;;;;;;;;;;5016408;28;20050;-84
2022/05/19 05:53:39;;;;;;;4.22;1.42;;;;;;;;;;5016701;28;20050;-82
2022/05/19 05:56:24;;;;;;;6.95;2.25;;;;;;;;;;5015914;28;20489;-83
2022/05/19 05:59:10;;;;;;;2.92;1.70;;;;;;;;;;5022031;28;20046;-83
2022/05/19 06:01:55;;;;;;;4.00;1.60;;;;;;;;;;5016059;28;20034;-83
2022/05/19 06:04:41;;;;;;;4.90;1.70;;;;;;;;;;5000890;28;20064;-82
2022/05/19 06:07:29;;;;;;;8.88;2.30;;;;;;;;;;5016371;28;20457;-83
2022/05/19 06:10:14;;;;;;;4.88;1.73;;;;;;;;;;5022489;28;20389;-84
2022/05/19 06:13:00;;;;;;;5.57;2.33;;;;;;;;;;5016267;28;20054;-84
2022/05/19 06:15:46;;;;;;;2.53;1.58;;;;;;;;;;5016275;28;20050;-83
2022/05/19 06:18:30;;;;;;;4.00;1.75;;;;;;;;;;5022265;28;20053;-84
2022/05/19 06:21:17;;;;;;;4.05;1.77;;;;;;;;;;5016013;28;20042;-83
2022/05/19 06:24:08;;;;;;;4.20;2.03;;;;;;;;;;5015931;28;20049;-84
2022/05/19 06:26:53;;;;;;;7.00;2.58;;;;;;;;;;5022245;28;20042;-83
2022/05/19 06:29:39;;;;;;;7.03;2.00;;;;;;;;;;5015486;28;20049;-83
2022/05/19 06:32:24;;;;;;;6.85;1.83;;;;;;;;;;5021778;28;20054;-83
2022/05/19 06:35:12;;;;;;;5.25;1.90;;;;;;;;;;5014894;28;20046;-83
2022/05/19 06:37:58;;;;;;;4.28;2.22;;;;;;;;;;5021917;28;20050;-84
2022/05/19 06:40:43;;;;;;;4.88;1.92;;;;;;;;;;5015343;28;20050;-81
2022/05/19 06:43:28;;;;;;;6.50;1.80;;;;;;;;;;5015526;28;20049;-82
2022/05/19 06:46:14;;;;;;;3.42;2.00;;;;;;;;;;5021577;28;20062;-83
2022/05/19 06:49:02;;;;;;;3.38;1.52;;;;;;;;;;5021749;28;20050;-83
2022/05/19 06:51:52;;;;;;;6.28;2.22;;;;;;;;;;5021751;28;20058;-82
2022/05/19 06:54:37;;;;;;;7.32;2.40;;;;;;;;;;5015508;28;20049;-82
2022/05/19 06:57:24;;;;;;;13.90;2.30;;;;;;;;;;5021698;28;20065;-84
2022/05/19 07:00:13;;;;;;;7.25;2.28;;;;;;;;;;5014684;28;20409;-84
2022/05/19 07:03:00;;;;;;;5.28;1.90;;;;;;;;;;5015363;28;20046;-83
2022/05/19 07:05:45;;;;;;;7.80;2.10;;;;;;;;;;5021219;28;20050;-82
2022/05/19 07:08:31;;;;;;;4.60;1.73;;;;;;;;;;5015103;28;20046;-84
2022/05/19 07:11:26;;;;;;;7.32;2.30;;;;;;;;;;5015000;28;20050;-85
2022/05/19 07:14:12;;;;;;;4.75;1.98;;;;;;;;;;5014707;28;20050;-83
2022/05/19 07:16:57;;;;;;;12.65;6.72;;;;;;;;;;5021507;28;20489;-83
2022/05/19 07:22:46;;;;;;;18.40;10.68;;;;;;;;;;5024744;28;20041;-84
2022/05/19 07:25:32;;;;;;;10.15;5.03;;;;;;;;;;5016798;28;20049;-82
2022/05/19 07:28:21;;;;;;;4.93;2.50;;;;;;;;;;5022452;28;20041;-85
2022/05/19 07:31:06;;;;;;;10.98;6.10;;;;;;;;;;5015686;28;20034;-83
2022/05/19 07:33:51;;;;;;;3.97;1.98;;;;;;;;;;5021137;28;20046;-83
2022/05/19 07:36:37;;;;;;;3.58;2.00;;;;;;;;;;5006654;28;20058;-83
2022/05/19 07:39:24;;;;;;;4.13;1.85;;;;;;;;;;5014386;28;20042;-83
2022/05/19 07:42:12;;;;;;;8.52;2.10;;;;;;;;;;5020560;28;20049;-82
2022/05/19 07:44:57;;;;;;;7.18;2.00;;;;;;;;;;5021549;28;20461;-82
2022/05/19 07:47:44;;;;;;;5.32;1.70;;;;;;;;;;5013759;28;20054;-80
2022/05/19 07:50:30;;;;;;;3.85;1.60;;;;;;;;;;5021205;28;20050;-80
2022/05/19 07:53:15;;;;;;;8.95;1.45;;;;;;;;;;5021047;28;20038;-81
2022/05/19 07:56:01;;;;;;;8.82;1.50;;;;;;;;;;5020487;28;20054;-82
2022/05/19 07:58:47;;;;;;;4.00;1.42;;;;;;;;;;5021040;28;20054;-79
2022/05/19 08:01:32;;;;;;;5.40;1.65;;;;;;;;;;5020224;28;20042;-80
2022/05/19 08:04:28;;;;;;;5.60;1.60;;;;;;;;;;5020547;28;20461;-80
2022/05/19 08:07:14;;;;;;;6.65;1.25;;;;;;;;;;5013956;28;20057;-83
2022/05/19 08:16:07;;;;;;;2.50;1.00;;;;;;;;;;5032910;28;20057;-80
2022/05/19 08:18:53;;;;;;;4.20;1.73;;;;;;;;;;5040191;28;20049;-81
2022/05/19 08:21:38;;;;;;;3.50;1.30;;;;;;;;;;5039983;28;20473;-80
2022/05/19 08:24:25;;;;;;;3.58;1.05;;;;;;;;;;5024705;28;20432;-79
2022/05/19 08:27:11;;;;;;;4.03;0.95;;;;;;;;;;5033586;28;20041;-82
2022/05/19 08:29:57;;;;;;;3.20;0.98;;;;;;;;;;5033284;28;20037;-82
2022/05/19 08:32:42;;;;;;;2.03;1.10;;;;;;;;;;5033856;28;20071;-83
2022/05/19 08:35:28;;;;;;;4.05;1.02;;;;;;;;;;5040354;28;20041;-80
2022/05/19 08:38:14;;;;;;;3.40;1.05;;;;;;;;;;5039711;28;20049;-81
2022/05/19 08:41:07;;;;;;;1.67;0.95;;;;;;;;;;5033836;28;20380;-81
2022/05/19 08:43:58;;;;;;;5.43;1.20;;;;;;;;;;5039764;28;20049;-84
2022/05/19 08:46:48;;;;;;;3.38;0.77;;;;;;;;;;5039932;28;20057;-81
2022/05/19 08:49:49;;;;;;;8.02;1.48;;;;;;;;;;5039963;28;20049;-80
2022/05/19 08:52:49;;;;;;;3.25;1.20;;;;;;;;;;5039021;28;20045;-81
2022/05/19 08:55:35;;;;;;;3.47;1.17;;;;;;;;;;5037597;28;20041;-81
2022/05/19 08:59:08;;;;;;;10.40;1.73;;;;;;;;;;5031433;28;20046;-81
2022/05/19 09:02:06;;;;;;;1.55;0.80;;;;;;;;;;4974317;28;20046;-81
2022/05/19 09:04:51;;;;;;;5.78;1.13;;;;;;;;;;5039613;28;20055;-80
2022/05/19 09:10:49;;;;;;;1.83;0.90;;;;;;;;;;5039499;28;20045;-80
2022/05/19 09:13:42;;;;;;;3.08;0.88;;;;;;;;;;5039254;28;20049;-82
2022/05/19 09:16:33;;;;;;;4.57;1.13;;;;;;;;;;5040149;28;20053;-81
2022/05/19 09:19:38;;;;;;;3.70;1.00;;;;;;;;;;5038408;28;20053;-82
2022/05/19 09:22:26;;;;;;;2.95;1.30;;;;;;;;;;5039663;28;20045;-81
2022/05/19 09:25:18;;;;;;;1.25;0.80;;;;;;;;;;5039669;28;20045;-79
2022/05/19 09:28:04;;;;;;;2.15;0.85;;;;;;;;;;5039478;28;20415;-81
2022/05/19 09:30:55;;;;;;;3.40;0.85;;;;;;;;;;5032821;28;20496;-80
2022/05/19 09:33:44;;;;;;;3.25;1.10;;;;;;;;;;5042132;28;20049;-81
2022/05/19 09:36:32;;;;;;;2.72;0.85;;;;;;;;;;5043250;28;20045;-80
2022/05/19 09:39:19;;;;;;;2.45;1.00;;;;;;;;;;5043402;28;20053;-81
2022/05/19 09:42:11;;;;;;;1.83;0.90;;;;;;;;;;5043126;28;20083;-79
2022/05/19 09:44:57;;;;;;;3.63;1.00;;;;;;;;;;5036455;28;20046;-80
2022/05/19 09:47:46;;;;;;;2.50;0.90;;;;;;;;;;5042541;28;20049;-82
2022/05/19 09:50:37;;;;;;;3.30;1.23;;;;;;;;;;5036192;28;20049;-84
2022/05/19 09:53:25;;;;;;;4.63;1.10;;;;;;;;;;5036079;28;20041;-81
2022/05/19 09:56:15;;;;;;;3.60;1.17;;;;;;;;;;5043354;28;20457;-82
2022/05/19 09:59:16;;;;;;;5.10;1.17;;;;;;;;;;5047172;28;20428;-84
2022/05/19 10:02:27;;;;;;;2.67;1.13;;;;;;;;;;5046255;28;20472;-82
2022/05/19 10:05:37;;;;;;;2.55;1.00;;;;;;;;;;5029693;28;20416;-83
2022/05/19 10:08:39;;;;;;;3.35;1.05;;;;;;;;;;5035666;28;20058;-86
2022/05/19 10:11:31;;;;;;;2.92;0.88;;;;;;;;;;5027768;28;20053;-86
2022/05/19 10:14:29;;;;;;;5.35;1.20;;;;;;;;;;5035781;28;20058;-85
2022/05/19 10:17:21;;;;;;;2.97;1.10;;;;;;;;;;5042122;28;20042;-83
2022/05/19 10:20:21;;;;;;;2.67;0.82;;;;;;;;;;5035545;28;20037;-83
2022/05/19 10:23:24;;;;;;;1.38;0.88;;;;;;;;;;5035512;28;20045;-82
2022/05/19 10:26:28;;;;;;;2.45;0.93;;;;;;;;;;5035606;28;20037;-83
2022/05/19 10:32:57;;;;;;;1.90;0.90;;;;;;;;;;5042265;28;20071;-84
2022/05/19 10:36:17;;;;;;;5.75;2.17;;;;;;;;;;5035401;28;20473;-86
2022/05/19 10:39:08;;;;;;;4.45;1.48;;;;;;;;;;5042054;28;20053;-83
2022/05/19 10:42:20;;;;;;;3.45;0.95;;;;;;;;;;5035414;28;20046;-82
2022/05/19 10:45:33;;;;;;;2.95;0.95;;;;;;;;;;5034464;28;20041;-83
2022/05/19 10:48:47;;;;;;;3.20;0.85;;;;;;;;;;5041690;28;20049;-82
2022/05/19 10:51:55;;;;;;;2.22;1.20;;;;;;;;;;5026855;28;20045;-85
2022/05/19 10:54:52;;;;;;;3.88;0.90;;;;;;;;;;5034775;28;20041;-84
2022/05/19 10:57:49;;;;;;;2.72;1.13;;;;;;;;;;5035310;28;20057;-83
2022/05/19 11:00:52;;;;;;;5.10;1.10;;;;;;;;;;5034587;28;20048;-84
2022/05/19 11:03:56;;;;;;;2.55;1.20;;;;;;;;;;5041362;28;20491;-83
2022/05/19 11:06:50;;;;;;;1.35;0.90;;;;;;;;;;5035001;28;20049;-82
2022/05/19 11:09:51;;;;;;;1.95;0.85;;;;;;;;;;5026552;28;20045;-81
2022/05/19 11:12:55;;;;;;;4.95;1.30;;;;;;;;;;5034712;28;20050;-82
2022/05/19 11:15:48;;;;;;;1.75;0.93;;;;;;;;;;5034030;28;20053;-82
2022/05/19 11:18:38;;;;;;;4.22;1.02;;;;;;;;;;5034686;28;20049;-82
2022/05/19 11:21:30;;;;;;;16.30;1.20;;;;;;;;;;5034512;28;20058;-86
2022/05/19 11:24:24;;;;;;;4.72;1.20;;;;;;;;;;5034614;28;20049;-84
2022/05/19 11:27:17;;;;;;;6.03;1.15;;;;;;;;;;5034498;28;20046;-83
2022/05/19 11:30:09;;;;;;;3.63;1.10;;;;;;;;;;5040552;28;20053;-83
2022/05/19 11:32:59;;;;;;;5.45;1.35;;;;;;;;;;5040991;28;20049;-83
2022/05/19 11:35:47;;;;;;;5.90;1.30;;;;;;;;;;5034168;28;20400;-83
2022/05/19 11:38:56;;;;;;;2.55;1.10;;;;;;;;;;5041383;28;20472;-83
2022/05/19 11:41:43;;;;;;;2.20;1.00;;;;;;;;;;5034859;28;20042;-82
2022/05/19 11:44:36;;;;;;;3.63;1.20;;;;;;;;;;5033873;28;20041;-81
2022/05/19 11:57:33;;;;;;;6.80;1.27;;;;;;;;;;5033110;28;20049;-84
2022/05/19 12:00:33;;;;;;;5.65;1.20;;;;;;;;;;5033934;28;20045;-83
2022/05/19 12:03:43;;;;;;;3.45;1.17;;;;;;;;;;5040466;28;20392;-84
2022/05/19 12:06:33;;;;;;;6.80;1.33;;;;;;;;;;5033835;28;20416;-83
2022/05/19 12:09:43;;;;;;;7.32;1.13;;;;;;;;;;5034045;28;20041;-83
2022/05/19 12:12:36;;;;;;;1.63;1.08;;;;;;;;;;5033388;28;20045;-84
2022/05/19 12:15:26;;;;;;;4.82;1.20;;;;;;;;;;5034188;28;20397;-83
2022/05/19 12:18:24;;;;;;;4.75;1.90;;;;;;;;;;5033550;28;20053;-84
2022/05/19 12:21:36;;;;;;;2.78;1.27;;;;;;;;;;5040472;28;20041;-83
2022/05/19 12:24:26;;;;;;;1.80;1.00;;;;;;;;;;5013664;28;20184;-84
2022/05/19 12:27:18;;;;;;;6.38;1.35;;;;;;;;;;5033830;28;20053;-83
2022/05/19 12:33:27;;;;;;;5.65;1.38;;;;;;;;;;5033385;28;20049;-83
2022/05/19 12:36:23;;;;;;;1.17;0.90;;;;;;;;;;5037866;28;20049;-84
2022/05/19 12:39:17;;;;;;;2.08;1.17;;;;;;;;;;5027894;28;20049;-82
2022/05/19 12:42:26;;;;;;;4.55;1.20;;;;;;;;;;5035531;28;20046;-83
2022/05/19 12:45:27;;;;;;;2.45;0.93;;;;;;;;;;5033396;28;20053;-82
2022/05/19 12:48:12;;;;;;;4.88;1.20;;;;;;;;;;5033321;28;20045;-82
2022/05/19 12:51:11;;;;;;;3.63;1.10;;;;;;;;;;5040260;28;20049;-84
2022/05/19 12:54:07;;;;;;;4.82;1.15;;;;;;;;;;5033078;28;20053;-83
2022/05/19 12:56:57;;;;;;;3.35;1.15;;;;;;;;;;5032944;28;20485;-83
2022/05/19 12:59:55;;;;;;;4.90;1.13;;;;;;;;;;5032994;28;20396;-83
2022/05/19 13:03:01;;;;;;;4.22;1.20;;;;;;;;;;5033425;28;20384;-84
2022/05/19 13:05:55;;;;;;;3.45;1.23;;;;;;;;;;5033271;28;20046;-84
2022/05/19 13:08:54;;;;;;;6.25;1.30;;;;;;;;;;5037081;28;20049;-84
2022/05/19 13:11:46;;;;;;;3.33;1.02;;;;;;;;;;5037127;28;20392;-85
2022/05/19 13:14:38;;;;;;;5.97;1.90;;;;;;;;;;5043140;28;20053;-83
2022/05/19 13:17:41;;;;;;;21.50;2.05;;;;;;;;;;5036691;28;20050;-83
2022/05/19 13:20:38;;;;;;;2.95;1.23;;;;;;;;;;5036668;28;20481;-81
2022/05/19 13:23:28;;;;;;;2.03;1.15;;;;;;;;;;5043386;28;20049;-82
2022/05/19 13:26:27;;;;;;;1.63;0.90;;;;;;;;;;5036961;28;20064;-81
2022/05/19 13:32:29;;;;;;;5.13;1.30;;;;;;;;;;5043132;28;20054;-83
2022/05/19 13:35:21;;;;;;;3.00;1.15;;;;;;;;;;5036410;28;20053;-85
2022/05/19 13:38:22;;;;;;;1.67;1.00;;;;;;;;;;5036644;28;20057;-85
2022/05/19 13:41:12;;;;;;;1.55;1.30;;;;;;;;;;5036449;28;20053;-85
2022/05/19 13:43:58;;;;;;;1.30;1.02;;;;;;;;;;5036418;28;20049;-84
2022/05/19 13:46:44;;;;;;;3.83;1.20;;;;;;;;;;5036505;28;20049;-84
2022/05/19 13:49:29;;;;;;;3.42;1.30;;;;;;;;;;5036031;28;20037;-84
2022/05/19 13:52:16;;;;;;;2.90;1.25;;;;;;;;;;5042737;28;20053;-84
2022/05/19 13:55:03;;;;;;;2.15;1.02;;;;;;;;;;5035645;28;20037;-84
2022/05/19 13:57:52;;;;;;;1.90;1.10;;;;;;;;;;5042629;28;20472;-85
2022/05/19 14:00:38;;;;;;;4.63;1.27;;;;;;;;;;5043040;28;20045;-85
2022/05/19 14:03:24;;;;;;;2.45;1.13;;;;;;;;;;5027711;28;20476;-84
2022/05/19 14:06:10;;;;;;;3.38;1.00;;;;;;;;;;5035640;28;20041;-84
2022/05/19 14:08:56;;;;;;;4.85;1.27;;;;;;;;;;5042516;28;20400;-83
2022/05/19 14:11:41;;;;;;;4.57;1.10;;;;;;;;;;5035847;28;20053;-83
2022/05/19 14:14:26;;;;;;;3.97;1.58;;;;;;;;;;5042549;28;20046;-84
2022/05/19 14:17:11;;;;;;;2.72;1.38;;;;;;;;;;5035632;28;20041;-84
2022/05/19 14:20:00;;;;;;;4.60;1.10;;;;;;;;;;5034607;28;20037;-82
2022/05/19 14:22:45;;;;;;;2.10;1.10;;;;;;;;;;5035424;28;20050;-85
2022/05/19 14:25:34;;;;;;;5.53;1.10;;;;;;;;;;5035272;28;20042;-84
2022/05/19 14:28:19;;;;;;;3.60;1.40;;;;;;;;;;5035366;28;20046;-84
2022/05/19 14:31:15;;;;;;;2.05;1.10;;;;;;;;;;5035023;28;20400;-84
2022/05/19 14:34:01;;;;;;;4.25;1.30;;;;;;;;;;5042087;28;20049;-83
2022/05/19 14:36:59;;;;;;;6.97;1.50;;;;;;;;;;5035509;28;20045;-84
2022/05/19 14:39:46;;;;;;;1.80;1.10;;;;;;;;;;5035048;28;20484;-84
2022/05/19 14:45:47;;;;;;;3.17;1.17;;;;;;;;;;5026679;28;20488;-84
2022/05/19 14:48:48;;;;;;;4.75;1.50;;;;;;;;;;5041856;28;20049;-83
2022/05/19 14:51:39;;;;;;;2.08;1.20;;;;;;;;;;5035179;28;20461;-82
2022/05/19 14:54:25;;;;;;;4.03;1.30;;;;;;;;;;5035572;28;20045;-82
2022/05/19 14:57:19;;;;;;;3.70;1.20;;;;;;;;;;5044386;28;20045;-81
2022/05/19 15:00:05;;;;;;;3.65;1.20;;;;;;;;;;5040851;28;20053;-83
2022/05/19 15:02:51;;;;;;;3.10;1.20;;;;;;;;;;5032678;28;20046;-82
2022/05/19 15:05:36;;;;;;;2.20;1.30;;;;;;;;;;5040080;28;20041;-83
2022/05/19 15:08:23;;;;;;;3.55;1.13;;;;;;;;;;5041105;28;20050;-84
2022/05/19 15:11:09;;;;;;;4.43;1.00;;;;;;;;;;5038676;28;20408;-83
2022/05/19 15:13:56;;;;;;;3.50;1.30;;;;;;;;;;5037385;28;20037;-83
2022/05/19 15:16:44;;;;;;;6.72;1.98;;;;;;;;;;5049970;28;20148;-85
2022/05/19 15:19:29;;;;;;;5.53;3.17;;;;;;;;;;5041729;28;20045;-82
2022/05/19 15:22:16;;;;;;;6.28;1.70;;;;;;;;;;5036402;28;20484;-82
2022/05/19 15:25:02;;;;;;;4.57;1.60;;;;;;;;;;5040630;28;20048;-81
2022/05/19 15:27:48;;;;;;;5.97;1.73;;;;;;;;;;5014218;28;20045;-83
2022/05/19 15:30:37;;;;;;;2.97;1.50;;;;;;;;;;5020848;28;20069;-83
2022/05/19 15:33:22;;;;;;;6.38;1.35;;;;;;;;;;5027985;28;20041;-84
2022/05/19 15:36:09;;;;;;;1.38;1.10;;;;;;;;;;5031437;28;20045;-82
2022/05/19 15:38:54;;;;;;;4.07;1.60;;;;;;;;;;5039141;28;20045;-81
2022/05/19 15:41:40;;;;;;;3.72;1.30;;;;;;;;;;5030217;28;20053;-81
2022/05/19 15:44:27;;;;;;;4.20;1.20;;;;;;;;;;5038088;28;20042;-86
2022/05/19 15:47:20;;;;;;;2.95;1.45;;;;;;;;;;5031417;28;20049;-82
2022/05/19 15:50:44;;;;;;;2.30;1.50;;;;;;;;;;5037790;28;20065;-81
2022/05/19 15:53:29;;;;;;;4.18;1.23;;;;;;;;;;5031370;28;20045;-81
2022/05/19 15:56:14;;;;;;;4.30;1.40;;;;;;;;;;5039168;28;20050;-81
2022/05/19 15:58:59;;;;;;;9.77;1.38;;;;;;;;;;5033311;28;20045;-84
2022/05/19 16:01:46;;;;;;;4.85;1.20;;;;;;;;;;5037734;28;20045;-82
2022/05/19 16:04:31;;;;;;;6.00;1.48;;;;;;;;;;5024618;28;20037;-82
2022/05/19 16:07:16;;;;;;;1.90;1.20;;;;;;;;;;5036909;28;20053;-81
2022/05/19 16:10:03;;;;;;;4.00;1.20;;;;;;;;;;5039632;28;20049;-82
2022/05/19 16:12:50;;;;;;;3.65;1.20;;;;;;;;;;5037991;28;20033;-82
2022/05/19 16:15:38;;;;;;;2.40;1.20;;;;;;;;;;5038458;28;20471;-83
2022/05/19 16:18:23;;;;;;;1.73;1.15;;;;;;;;;;5034650;28;20041;-83
2022/05/19 16:21:16;;;;;;;2.30;1.30;;;;;;;;;;5040218;28;20061;-84
2022/05/19 16:24:04;;;;;;;2.28;1.48;;;;;;;;;;5033157;28;20054;-84
2022/05/19 16:26:50;;;;;;;5.15;1.33;;;;;;;;;;5033345;28;20041;-79
2022/05/19 16:29:36;;;;;;;6.60;1.50;;;;;;;;;;5040132;28;20053;-80
2022/05/19 16:32:22;;;;;;;3.72;1.30;;;;;;;;;;5033585;28;20037;-81
2022/05/19 16:35:08;;;;;;;3.22;1.52;;;;;;;;;;5033339;28;20045;-79
2022/05/19 16:37:58;;;;;;;4.68;1.38;;;;;;;;;;5039720;28;20037;-79
2022/05/19 16:40:43;;;;;;;5.55;1.58;;;;;;;;;;5039892;28;20049;-78
2022/05/19 16:43:30;;;;;;;5.07;1.50;;;;;;;;;;5042777;28;20049;-80
2022/05/19 16:46:18;;;;;;;5.15;1.42;;;;;;;;;;5037117;28;20049;-78
2022/05/19 16:49:04;;;;;;;7.03;1.95;;;;;;;;;;5037518;28;20054;-81
2022/05/19 16:51:49;;;;;;;3.92;1.45;;;;;;;;;;5043193;28;20045;-81
2022/05/19 16:57:45;;;;;;;10.30;1.98;;;;;;;;;;5018593;28;20046;-78
2022/05/19 17:00:40;;;;;;;7.22;1.77;;;;;;;;;;5043802;28;20045;-80
2022/05/19 17:03:25;;;;;;;3.78;1.98;;;;;;;;;;5043450;28;20049;-81
2022/05/19 17:06:10;;;;;;;9.18;2.80;;;;;;;;;;5043261;28;20049;-81
2022/05/19 17:08:56;;;;;;;6.63;2.72;;;;;;;;;;5043749;28;20097;-81
2022/05/19 17:11:41;;;;;;;8.40;3.38;;;;;;;;;;5036751;28;20049;-81
2022/05/19 17:14:28;;;;;;;8.63;2.97;;;;;;;;;;5043405;28;20396;-82
2022/05/19 17:17:13;;;;;;;6.97;2.38;;;;;;;;;;5028469;28;20045;-81
2022/05/19 17:19:59;;;;;;;8.02;2.80;;;;;;;;;;5042828;28;20476;-81
2022/05/19 17:22:50;;;;;;;5.50;2.30;;;;;;;;;;5042600;28;20053;-82
2022/05/19 17:25:38;;;;;;;8.38;2.03;;;;;;;;;;5042619;28;20045;-81
2022/05/19 17:28:23;;;;;;;9.02;2.17;;;;;;;;;;5036578;28;20045;-81
2022/05/19 17:31:09;;;;;;;6.90;2.17;;;;;;;;;;5036373;28;20045;-81
2022/05/19 17:33:54;;;;;;;5.30;2.05;;;;;;;;;;5042819;28;20041;-80
2022/05/19 17:36:39;;;;;;;12.38;2.30;;;;;;;;;;5042998;28;20041;-81
2022/05/19 17:39:26;;;;;;;6.68;2.33;;;;;;;;;;5035896;28;20484;-81